sim
Sign-in with your pilot id or email,
or register
Callsign
Passwort

Schedule Details

Flight Number: OEO2196
Departure: Vienna International Airport (LOWW) at 08:25
Arrival: Gothenburg Landvetter Airport (ESGG) at 10:30

Weather Information
Getting current METAR information for LOWW 251420Z 12007KT 9000 4000N BR FEW003 OVC007 12/11 Q1012 NOSIG
Getting current METAR information for ESGG 251420Z 22017KT 8000 DZ SCT005 BKN019 11/10 Q0998

Schedule Frequency

Route Map